Time;durP1;ratioP1;P1;durP2;ratioP2;P2;SDS_P1;SDS_P2;PMS_P1;PMS_P2;Temp;Humidity;BMP_temperature;BMP_pressure;BME280_temperature;BME280_humidity;BME280_pressure;Samples;Min_cycle;Max_cycle;Signal;HPM_P1;HPM_P2
2022/02/01 00:02:19;;;;;;;31.80;4.72;;;;;;;;;;5091907;28;20034;-69
2022/02/01 00:05:08;;;;;;;32.00;4.07;;;;;;;;;;5091541;28;20348;-68
2022/02/01 00:07:46;;;;;;;38.85;5.65;;;;;;;;;;5091071;28;20016;-68
2022/02/01 00:10:19;;;;;;;32.50;5.18;;;;;;;;;;5091275;28;20102;-68
2022/02/01 00:13:00;;;;;;;40.58;5.75;;;;;;;;;;5091467;28;20019;-68
2022/02/01 00:16:06;;;;;;;;;;;;;;;;;;5073152;28;20028;-68
2022/02/01 00:37:02;;;;;;;32.92;3.92;;;;;;;;;;5090407;28;20392;-68
2022/02/01 00:39:40;;;;;;;38.63;5.20;;;;;;;;;;5089305;28;20012;-68
2022/02/01 00:42:06;;;;;;;36.13;5.50;;;;;;;;;;5090842;28;20028;-68
2022/02/01 00:44:31;;;;;;;32.22;4.53;;;;;;;;;;5090645;28;20473;-68
2022/02/01 00:46:56;;;;;;;35.42;5.18;;;;;;;;;;5091406;28;20035;-68
2022/02/01 00:49:21;;;;;;;39.95;3.92;;;;;;;;;;5090293;28;20040;-68
2022/02/01 00:51:46;;;;;;;21.15;2.88;;;;;;;;;;5090280;28;20361;-68
2022/02/01 00:54:12;;;;;;;21.90;3.47;;;;;;;;;;5075153;28;20021;-68
2022/02/01 00:56:37;;;;;;;42.88;5.35;;;;;;;;;;5071249;28;20024;-68
2022/02/01 00:59:02;;;;;;;27.92;3.55;;;;;;;;;;5089891;28;20029;-69
2022/02/01 01:01:27;;;;;;;29.30;3.30;;;;;;;;;;5090593;28;20644;-68
2022/02/01 01:03:52;;;;;;;31.70;4.03;;;;;;;;;;5089917;28;20028;-69
2022/02/01 01:06:18;;;;;;;40.08;4.35;;;;;;;;;;5089603;28;20254;-69
2022/02/01 01:08:43;;;;;;;35.85;4.20;;;;;;;;;;5090281;28;20022;-69
2022/02/01 01:11:09;;;;;;;48.45;4.82;;;;;;;;;;5090640;28;20026;-68
2022/02/01 01:43:41;;;;;;;46.35;3.47;;;;;;;;;;5090271;28;20364;-68
2022/02/01 01:54:15;;;;;;;34.45;5.85;;;;;;;;;;5090081;28;20080;-68
2022/02/01 01:56:41;;;;;;;29.65;2.97;;;;;;;;;;5089440;28;20024;-68
2022/02/01 01:59:07;;;;;;;35.30;4.32;;;;;;;;;;5090071;28;20031;-68
2022/02/01 02:01:33;;;;;;;46.92;6.40;;;;;;;;;;5089182;28;20387;-68
2022/02/01 02:03:58;;;;;;;47.78;3.92;;;;;;;;;;5089993;28;20028;-68
2022/02/01 02:06:23;;;;;;;20.60;2.95;;;;;;;;;;5089396;28;20027;-68
2022/02/01 02:08:52;;;;;;;24.15;3.35;;;;;;;;;;5089134;28;20034;-68
2022/02/01 02:11:36;;;;;;;24.52;2.92;;;;;;;;;;5089420;28;20548;-68
2022/02/01 02:16:49;;;;;;;34.10;5.25;;;;;;;;;;5081633;28;20061;-68
2022/02/01 02:19:15;;;;;;;25.45;3.30;;;;;;;;;;5088913;28;20012;-68
2022/02/01 02:21:44;;;;;;;20.10;2.60;;;;;;;;;;5089404;28;20035;-68
2022/02/01 02:24:09;;;;;;;20.50;2.53;;;;;;;;;;5088191;28;20206;-68
2022/02/01 02:26:34;;;;;;;20.70;3.05;;;;;;;;;;5088869;28;20013;-68
2022/02/01 02:29:00;;;;;;;26.75;4.53;;;;;;;;;;5088329;28;20020;-68
2022/02/01 02:31:25;;;;;;;21.13;3.58;;;;;;;;;;5089041;28;20016;-68
2022/02/01 02:33:58;;;;;;;32.28;3.60;;;;;;;;;;5089269;28;20020;-68
2022/02/01 02:36:23;;;;;;;24.65;4.05;;;;;;;;;;5088695;28;20070;-68
2022/02/01 02:39:04;;;;;;;19.75;2.60;;;;;;;;;;5074225;28;20561;-68
2022/02/01 02:41:33;;;;;;;19.73;3.25;;;;;;;;;;5092976;28;20027;-68
2022/02/01 02:46:45;;;;;;;23.75;2.67;;;;;;;;;;5084967;28;20384;-68
2022/02/01 02:49:15;;;;;;;22.48;2.90;;;;;;;;;;5093646;28;20020;-68
2022/02/01 02:51:41;;;;;;;13.38;2.45;;;;;;;;;;5093864;28;20042;-69
2022/02/01 02:54:07;;;;;;;24.02;3.25;;;;;;;;;;5093647;28;20027;-68
2022/02/01 02:56:32;;;;;;;22.70;2.90;;;;;;;;;;5092628;28;20383;-69
2022/02/01 02:58:58;;;;;;;38.80;6.50;;;;;;;;;;5092944;28;20017;-68
2022/02/01 03:01:23;;;;;;;33.30;3.17;;;;;;;;;;5092947;28;20019;-69
2022/02/01 03:03:48;;;;;;;25.58;3.55;;;;;;;;;;5092613;28;20438;-68
2022/02/01 03:06:13;;;;;;;26.05;2.78;;;;;;;;;;5092391;28;20043;-68
2022/02/01 03:08:39;;;;;;;16.38;2.92;;;;;;;;;;5092999;28;20035;-68
2022/02/01 03:11:09;;;;;;;24.60;3.75;;;;;;;;;;5092797;28;20028;-68
2022/02/01 03:13:34;;;;;;;23.02;2.28;;;;;;;;;;5091407;28;20099;-68
2022/02/01 03:16:10;;;;;;;24.77;3.72;;;;;;;;;;5091937;28;20103;-69
2022/02/01 03:21:19;;;;;;;26.73;5.25;;;;;;;;;;5092677;28;20498;-68
2022/02/01 03:23:44;;;;;;;30.20;3.88;;;;;;;;;;5090299;28;20035;-68
2022/02/01 03:26:09;;;;;;;25.33;2.92;;;;;;;;;;5092262;28;20020;-68
2022/02/01 03:28:35;;;;;;;34.08;3.63;;;;;;;;;;5091620;28;20023;-68
2022/02/01 03:31:00;;;;;;;19.38;2.88;;;;;;;;;;5092179;28;20016;-68
2022/02/01 03:33:25;;;;;;;20.17;3.45;;;;;;;;;;5092247;28;20034;-68
2022/02/01 03:35:50;;;;;;;18.60;2.60;;;;;;;;;;5092339;28;20426;-68
2022/02/01 03:38:15;;;;;;;28.05;3.10;;;;;;;;;;5092234;22;20052;-70
2022/02/01 03:40:41;;;;;;;18.30;2.47;;;;;;;;;;5072574;28;20055;-69
2022/02/01 03:43:06;;;;;;;23.67;2.15;;;;;;;;;;5070973;28;20016;-69
2022/02/01 03:45:31;;;;;;;31.35;4.15;;;;;;;;;;5071456;28;20025;-70
2022/02/01 03:47:56;;;;;;;34.38;3.28;;;;;;;;;;5071461;28;20048;-69
2022/02/01 03:50:22;;;;;;;31.60;4.10;;;;;;;;;;5069973;28;20419;-69
2022/02/01 03:52:47;;;;;;;22.10;3.25;;;;;;;;;;5070961;28;20032;-70
2022/02/01 03:55:12;;;;;;;32.20;3.42;;;;;;;;;;5072219;28;20083;-69
2022/02/01 03:57:37;;;;;;;21.95;2.20;;;;;;;;;;5071241;28;20028;-69
2022/02/01 04:00:03;;;;;;;30.98;2.83;;;;;;;;;;5071358;28;20421;-70
2022/02/01 04:02:29;;;;;;;22.20;2.17;;;;;;;;;;5070786;28;20077;-69
2022/02/01 04:04:54;;;;;;;34.45;4.05;;;;;;;;;;5071991;28;20016;-69
2022/02/01 04:07:20;;;;;;;23.90;3.67;;;;;;;;;;5071706;28;20094;-69
2022/02/01 04:09:46;;;;;;;28.80;3.28;;;;;;;;;;5052737;28;20263;-69
2022/02/01 04:12:11;;;;;;;20.17;3.15;;;;;;;;;;5071301;28;20538;-69
2022/02/01 04:14:37;;;;;;;18.98;3.95;;;;;;;;;;5070654;28;20035;-69
2022/02/01 04:17:04;;;;;;;41.97;5.45;;;;;;;;;;5071243;28;20086;-69
2022/02/01 04:19:31;;;;;;;24.75;3.92;;;;;;;;;;5071316;28;20029;-71
2022/02/01 04:22:02;;;;;;;22.88;3.78;;;;;;;;;;5070709;28;20427;-69
2022/02/01 04:24:54;;;;;;;29.10;3.42;;;;;;;;;;5071500;28;20095;-70
2022/02/01 04:29:57;;;;;;;25.90;4.68;;;;;;;;;;5071358;28;20019;-69
2022/02/01 04:32:22;;;;;;;23.13;4.63;;;;;;;;;;5070840;28;20033;-69
2022/02/01 04:34:53;;;;;;;30.80;4.63;;;;;;;;;;5070944;28;20038;-69
2022/02/01 04:37:20;;;;;;;28.38;4.32;;;;;;;;;;5071023;28;20735;-69
2022/02/01 04:39:45;;;;;;;25.35;4.00;;;;;;;;;;5070470;28;20029;-70
2022/02/01 04:42:10;;;;;;;32.35;5.05;;;;;;;;;;5070332;28;20106;-69
2022/02/01 04:44:35;;;;;;;28.20;4.32;;;;;;;;;;5071295;28;20017;-69
2022/02/01 04:47:00;;;;;;;20.90;4.70;;;;;;;;;;5070105;28;20023;-69
2022/02/01 04:49:26;;;;;;;38.55;4.72;;;;;;;;;;5070644;28;20095;-69
2022/02/01 04:51:51;;;;;;;29.98;4.40;;;;;;;;;;5070386;28;20477;-69
2022/02/01 04:54:16;;;;;;;28.33;4.80;;;;;;;;;;5052751;28;20052;-69
2022/02/01 04:56:41;;;;;;;35.50;5.75;;;;;;;;;;5070685;28;20091;-69
2022/02/01 04:59:06;;;;;;;36.70;5.18;;;;;;;;;;5070011;28;20035;-69
2022/02/01 05:01:40;;;;;;;30.02;4.40;;;;;;;;;;5069896;28;20025;-70
2022/02/01 05:04:06;;;;;;;32.15;4.93;;;;;;;;;;5070349;28;20124;-69
2022/02/01 05:06:32;;;;;;;39.03;4.70;;;;;;;;;;5070521;28;20100;-70
2022/02/01 05:08:57;;;;;;;32.90;5.18;;;;;;;;;;5069942;28;20017;-69
2022/02/01 05:11:23;;;;;;;32.10;4.50;;;;;;;;;;5069763;28;20039;-69
2022/02/01 05:16:43;;;;;;;31.83;3.30;;;;;;;;;;5070675;28;20032;-69
2022/02/01 05:19:10;;;;;;;36.33;7.10;;;;;;;;;;5070120;28;20040;-69
2022/02/01 05:21:37;;;;;;;23.20;3.65;;;;;;;;;;5069675;28;20187;-70
2022/02/01 05:24:03;;;;;;;21.27;3.03;;;;;;;;;;5070271;28;20038;-69
2022/02/01 05:26:30;;;;;;;35.45;4.63;;;;;;;;;;5058960;28;20054;-70
2022/02/01 05:28:55;;;;;;;17.63;3.50;;;;;;;;;;5070163;28;20024;-69
2022/02/01 05:31:22;;;;;;;24.08;4.00;;;;;;;;;;5069751;28;20020;-70
2022/02/01 05:33:47;;;;;;;25.45;3.88;;;;;;;;;;5069516;28;20044;-70
2022/02/01 05:36:12;;;;;;;28.17;5.27;;;;;;;;;;5070293;28;20020;-69
2022/02/01 05:38:37;;;;;;;22.45;3.78;;;;;;;;;;5069266;28;20298;-70
2022/02/01 05:41:03;;;;;;;30.20;5.15;;;;;;;;;;5069381;28;20489;-70
2022/02/01 05:43:29;;;;;;;33.92;4.30;;;;;;;;;;5070033;28;20407;-69
2022/02/01 05:45:58;;;;;;;20.30;3.22;;;;;;;;;;5061524;28;20599;-69
2022/02/01 05:48:24;;;;;;;20.45;4.95;;;;;;;;;;5067497;28;20070;-69
2022/02/01 05:50:51;;;;;;;25.30;6.13;;;;;;;;;;5067131;28;20023;-69
2022/02/01 05:53:16;;;;;;;29.67;5.45;;;;;;;;;;5067465;28;20021;-69
2022/02/01 05:55:42;;;;;;;28.00;4.97;;;;;;;;;;5067864;28;20123;-69
2022/02/01 05:58:07;;;;;;;22.77;3.70;;;;;;;;;;5067615;28;20585;-69
2022/02/01 06:00:32;;;;;;;25.85;4.43;;;;;;;;;;5067836;28;20041;-69
2022/02/01 06:02:59;;;;;;;17.60;3.22;;;;;;;;;;5067887;28;20029;-69
2022/02/01 06:05:25;;;;;;;28.58;4.30;;;;;;;;;;5067841;28;20047;-69
2022/02/01 06:07:51;;;;;;;28.92;3.90;;;;;;;;;;5066659;28;20384;-69
2022/02/01 06:10:16;;;;;;;28.52;4.32;;;;;;;;;;5067257;28;20031;-70
2022/02/01 06:12:42;;;;;;;22.80;4.75;;;;;;;;;;5069738;28;20024;-70
2022/02/01 06:15:08;;;;;;;14.02;2.30;;;;;;;;;;5071482;28;20030;-70
2022/02/01 06:17:33;;;;;;;8.77;1.77;;;;;;;;;;5067089;28;20253;-69
2022/02/01 06:19:59;;;;;;;19.07;3.43;;;;;;;;;;5073407;28;20469;-70
2022/02/01 06:22:24;;;;;;;23.48;2.83;;;;;;;;;;5072360;28;20278;-70
2022/02/01 06:24:49;;;;;;;19.80;2.72;;;;;;;;;;5070763;28;20447;-69
2022/02/01 06:27:15;;;;;;;13.68;3.45;;;;;;;;;;5068770;28;20032;-70
2022/02/01 06:29:40;;;;;;;18.08;2.60;;;;;;;;;;5071135;28;20149;-70
2022/02/01 06:32:05;;;;;;;27.20;3.33;;;;;;;;;;5070425;28;20455;-70
2022/02/01 06:34:30;;;;;;;26.35;3.78;;;;;;;;;;5070906;28;20328;-70
2022/02/01 06:36:56;;;;;;;18.42;3.70;;;;;;;;;;5070865;28;20078;-70
2022/02/01 06:39:21;;;;;;;28.20;4.35;;;;;;;;;;5070570;28;20107;-70
2022/02/01 06:41:46;;;;;;;18.40;2.83;;;;;;;;;;5070483;28;20442;-70
2022/02/01 06:44:11;;;;;;;19.30;2.70;;;;;;;;;;5069993;28;20024;-70
2022/02/01 06:46:37;;;;;;;20.90;2.78;;;;;;;;;;5071162;28;20598;-70
2022/02/01 06:49:03;;;;;;;12.27;3.10;;;;;;;;;;5070312;28;20035;-70
2022/02/01 06:51:29;;;;;;;15.63;2.95;;;;;;;;;;5070544;28;20465;-69
2022/02/01 06:53:56;;;;;;;28.52;3.13;;;;;;;;;;5067730;28;20082;-70
2022/02/01 06:56:28;;;;;;;20.60;3.35;;;;;;;;;;5071178;28;20020;-70
2022/02/01 06:58:54;;;;;;;15.48;2.50;;;;;;;;;;5068848;28;20418;-70
2022/02/01 07:01:19;;;;;;;17.75;3.05;;;;;;;;;;5067477;28;20078;-71
2022/02/01 07:03:44;;;;;;;13.50;2.60;;;;;;;;;;5071568;28;20034;-70
2022/02/01 07:06:12;;;;;;;8.83;1.23;;;;;;;;;;5071892;28;21339;-70
2022/02/01 07:08:38;;;;;;;16.23;3.05;;;;;;;;;;5071028;28;20339;-70
2022/02/01 07:11:03;;;;;;;18.92;4.20;;;;;;;;;;5071714;28;20447;-70
2022/02/01 07:13:29;;;;;;;12.40;1.98;;;;;;;;;;5073023;28;20077;-70
2022/02/01 07:15:55;;;;;;;11.18;2.83;;;;;;;;;;5072932;28;20021;-70
2022/02/01 07:18:20;;;;;;;13.93;2.13;;;;;;;;;;5072361;28;20029;-71
2022/02/01 07:20:46;;;;;;;7.03;2.10;;;;;;;;;;5072203;28;20564;-70
2022/02/01 07:23:15;;;;;;;18.80;2.75;;;;;;;;;;5070378;28;20020;-70
2022/02/01 07:25:46;;;;;;;21.05;2.90;;;;;;;;;;5071455;28;20366;-70
2022/02/01 07:28:12;;;;;;;20.83;3.03;;;;;;;;;;5071268;28;20528;-70
2022/02/01 07:30:37;;;;;;;20.65;2.78;;;;;;;;;;5072864;28;20103;-70
2022/02/01 07:33:03;;;;;;;18.70;3.20;;;;;;;;;;5071945;28;20099;-70
2022/02/01 07:35:30;;;;;;;17.90;2.92;;;;;;;;;;5072554;28;20028;-70
2022/02/01 07:37:56;;;;;;;25.95;3.22;;;;;;;;;;5072508;28;20031;-70
2022/02/01 07:40:21;;;;;;;23.13;3.42;;;;;;;;;;5071971;28;20352;-70
2022/02/01 07:42:47;;;;;;;20.05;2.45;;;;;;;;;;5052973;28;20062;-71
2022/02/01 07:45:13;;;;;;;14.23;2.42;;;;;;;;;;5071144;28;20025;-70
2022/02/01 07:47:39;;;;;;;23.00;3.47;;;;;;;;;;5071071;28;20031;-70
2022/02/01 07:50:05;;;;;;;11.50;2.45;;;;;;;;;;5071477;28;20024;-70
2022/02/01 07:52:30;;;;;;;16.85;2.85;;;;;;;;;;5071164;28;20024;-70
2022/02/01 07:54:55;;;;;;;32.63;4.97;;;;;;;;;;5071233;28;20036;-70
2022/02/01 07:57:21;;;;;;;21.50;3.38;;;;;;;;;;5071223;28;20395;-70
2022/02/01 07:59:46;;;;;;;34.72;5.10;;;;;;;;;;5071618;28;20021;-70
2022/02/01 08:02:19;;;;;;;21.65;3.65;;;;;;;;;;5070718;28;20031;-71
2022/02/01 08:04:45;;;;;;;15.90;3.35;;;;;;;;;;5070955;28;20016;-70
2022/02/01 08:07:10;;;;;;;19.90;3.80;;;;;;;;;;5071622;28;20075;-70
2022/02/01 08:09:39;;;;;;;42.60;4.82;;;;;;;;;;5070866;28;20034;-70
2022/02/01 08:12:18;;;;;;;8.02;2.13;;;;;;;;;;5070596;28;20017;-71
2022/02/01 08:17:33;;;;;;;16.35;3.72;;;;;;;;;;5069719;28;20024;-70
2022/02/01 08:20:03;;;;;;;25.83;3.83;;;;;;;;;;5069762;28;20020;-70
2022/02/01 08:24:57;;;;;;;20.55;5.07;;;;;;;;;;5052830;28;20071;-70
2022/02/01 08:27:22;;;;;;;22.80;6.50;;;;;;;;;;5071147;28;20024;-70
2022/02/01 08:29:47;;;;;;;16.92;4.57;;;;;;;;;;5071530;28;20400;-71
2022/02/01 08:32:12;;;;;;;10.88;4.72;;;;;;;;;;5070716;28;20492;-71
2022/02/01 08:34:37;;;;;;;17.33;5.95;;;;;;;;;;5068706;28;20472;-71
2022/02/01 08:37:03;;;;;;;16.27;3.63;;;;;;;;;;5070140;28;20035;-71
2022/02/01 08:39:28;;;;;;;28.55;5.57;;;;;;;;;;5071385;28;20292;-71
2022/02/01 08:41:53;;;;;;;36.53;8.05;;;;;;;;;;5071175;28;20422;-70
2022/02/01 08:44:24;;;;;;;24.75;5.47;;;;;;;;;;5071307;28;20021;-71
2022/02/01 08:46:49;;;;;;;24.60;5.55;;;;;;;;;;5067611;28;20043;-71
2022/02/01 08:49:15;;;;;;;32.23;6.77;;;;;;;;;;5071212;28;20020;-70
2022/02/01 08:51:43;;;;;;;29.60;6.07;;;;;;;;;;5071086;28;20274;-70
2022/02/01 08:54:18;;;;;;;18.20;5.32;;;;;;;;;;5070584;28;20051;-70
2022/02/01 08:59:28;;;;;;;25.50;6.05;;;;;;;;;;5070737;28;20446;-71
2022/02/01 09:01:53;;;;;;;25.27;4.80;;;;;;;;;;5055342;28;20021;-71
2022/02/01 09:04:19;;;;;;;34.05;8.80;;;;;;;;;;5066040;28;20017;-71
2022/02/01 09:06:44;;;;;;;22.17;5.88;;;;;;;;;;5070726;28;20492;-71
2022/02/01 09:09:09;;;;;;;12.95;6.20;;;;;;;;;;5070579;28;20109;-71
2022/02/01 09:11:34;;;;;;;29.67;9.00;;;;;;;;;;5070453;28;20027;-71
2022/02/01 09:13:59;;;;;;;19.98;7.28;;;;;;;;;;5070411;28;20258;-71
2022/02/01 09:16:25;;;;;;;19.35;7.45;;;;;;;;;;5050230;28;20045;-71
2022/02/01 09:18:50;;;;;;;21.55;8.10;;;;;;;;;;5066941;28;20022;-71
2022/02/01 09:21:16;;;;;;;24.58;9.65;;;;;;;;;;5051980;28;20099;-71
2022/02/01 09:23:41;;;;;;;14.00;6.20;;;;;;;;;;5070825;28;20021;-71
2022/02/01 09:26:06;;;;;;;33.80;10.48;;;;;;;;;;5069778;28;20518;-71
2022/02/01 09:28:32;;;;;;;23.98;6.63;;;;;;;;;;5070515;28;20027;-71
2022/02/01 09:30:58;;;;;;;17.75;5.28;;;;;;;;;;5069764;28;20024;-71
2022/02/01 09:33:23;;;;;;;20.58;8.40;;;;;;;;;;5070123;28;20085;-71
2022/02/01 09:35:48;;;;;;;23.87;9.10;;;;;;;;;;5070219;28;20058;-71
2022/02/01 09:38:18;;;;;;;28.53;9.00;;;;;;;;;;5076451;22;20389;-90
2022/02/01 09:40:55;;;;;;;32.55;9.25;;;;;;;;;;5048911;28;20362;-90
2022/02/01 09:43:50;;;;;;;21.55;5.93;;;;;;;;;;5054827;28;20033;-91
2022/02/01 09:46:16;;;;;;;29.45;8.27;;;;;;;;;;5061581;28;20475;-91
2022/02/01 09:52:34;;;;;;;;;;;;;;;;;;;;;
2022/02/01 09:55:07;;;;;;;21.42;7.35;;;;;;;;;;4935150;29;20035;-90
2022/02/01 09:58:01;;;;;;;;;;;;;;;;;;;;;
2022/02/01 10:00:55;;;;;;;24.10;8.20;;;;;;;;;;5060533;28;20042;-91
2022/02/01 10:03:33;;;;;;;21.55;9.25;;;;;;;;;;4976191;28;20038;-91
2022/02/01 10:13:13;;;;;;;;;;;;;;;;;;;;;
2022/02/01 10:16:14;;;;;;;22.30;6.35;;;;;;;;;;5082023;28;20020;-91
2022/02/01 10:18:57;;;;;;;21.90;7.57;;;;;;;;;;5053057;28;20021;-92
2022/02/01 10:21:23;;;;;;;15.25;5.20;;;;;;;;;;5053586;28;20573;-90
2022/02/01 10:27:03;;;;;;;8.60;3.40;;;;;;;;;;5039138;28;20025;-92
2022/02/01 10:29:34;;;;;;;15.82;3.40;;;;;;;;;;5050201;28;20024;-90
2022/02/01 10:32:29;;;;;;;10.45;4.00;;;;;;;;;;5051434;28;20028;-91
2022/02/01 10:35:09;;;;;;;7.15;3.95;;;;;;;;;;5067711;28;20028;-91
2022/02/01 10:37:40;;;;;;;8.77;4.22;;;;;;;;;;5075745;28;20016;-91
2022/02/01 10:40:07;;;;;;;10.32;4.18;;;;;;;;;;5060322;22;20048;-72
2022/02/01 10:42:32;;;;;;;12.50;3.35;;;;;;;;;;5048679;28;20025;-72
2022/02/01 10:44:59;;;;;;;6.20;3.85;;;;;;;;;;5049151;28;20017;-71
2022/02/01 10:47:34;;;;;;;12.50;4.10;;;;;;;;;;5051501;28;20025;-72
2022/02/01 10:50:10;;;;;;;8.57;3.65;;;;;;;;;;5047978;28;20021;-71
2022/02/01 10:52:36;;;;;;;8.35;2.33;;;;;;;;;;5072862;22;20171;-70
2022/02/01 10:55:02;;;;;;;10.52;3.00;;;;;;;;;;5080601;28;20043;-67
2022/02/01 10:57:28;;;;;;;4.43;1.40;;;;;;;;;;5088803;28;21263;-67
2022/02/01 10:59:53;;;;;;;4.75;2.35;;;;;;;;;;5092720;28;20491;-68
2022/02/01 11:02:18;;;;;;;12.23;3.00;;;;;;;;;;5092231;28;20024;-67
2022/02/01 11:04:44;;;;;;;5.57;2.72;;;;;;;;;;5092742;28;20024;-67
2022/02/01 11:07:09;;;;;;;13.30;3.10;;;;;;;;;;5092131;28;20081;-67
2022/02/01 11:09:35;;;;;;;8.20;2.72;;;;;;;;;;5091517;28;20375;-67
2022/02/01 11:12:05;;;;;;;4.05;2.10;;;;;;;;;;5092439;28;20391;-68
2022/02/01 11:14:35;;;;;;;3.85;1.65;;;;;;;;;;5092063;28;20616;-67
2022/02/01 11:17:21;;;;;;;9.20;2.70;;;;;;;;;;5093028;28;20408;-67
2022/02/01 11:19:46;;;;;;;10.05;2.33;;;;;;;;;;5092427;28;20073;-67
2022/02/01 11:22:23;;;;;;;5.78;2.53;;;;;;;;;;5092118;28;20016;-67
2022/02/01 11:24:52;;;;;;;1.70;0.88;;;;;;;;;;5091715;28;20016;-67
2022/02/01 11:27:31;;;;;;;22.98;8.95;;;;;;;;;;5092719;28;20519;-67
2022/02/01 11:32:35;;;;;;;22.05;8.35;;;;;;;;;;5091349;28;20480;-68
2022/02/01 11:35:05;;;;;;;9.55;4.28;;;;;;;;;;5092609;28;20028;-69
2022/02/01 11:37:30;;;;;;;15.80;6.45;;;;;;;;;;5092909;28;20023;-68
2022/02/01 11:39:56;;;;;;;16.52;5.03;;;;;;;;;;5093338;28;20035;-68
2022/02/01 11:42:22;;;;;;;13.63;6.32;;;;;;;;;;5073432;28;20016;-69
2022/02/01 11:44:58;;;;;;;12.13;6.25;;;;;;;;;;5075152;28;20044;-68
2022/02/01 11:47:31;;;;;;;7.93;4.00;;;;;;;;;;5091439;28;20016;-68
2022/02/01 11:49:58;;;;;;;5.28;2.50;;;;;;;;;;5092602;28;20484;-68
2022/02/01 11:52:24;;;;;;;11.98;3.55;;;;;;;;;;5090935;28;20063;-68
2022/02/01 11:54:58;;;;;;;3.50;2.08;;;;;;;;;;5090902;28;20023;-68
2022/02/01 11:57:28;;;;;;;4.00;2.20;;;;;;;;;;5089095;28;20167;-68
2022/02/01 12:00:14;;;;;;;3.58;2.28;;;;;;;;;;5091566;28;20065;-68
2022/02/01 12:02:41;;;;;;;7.10;2.75;;;;;;;;;;5089347;28;20109;-68
2022/02/01 12:05:18;;;;;;;9.20;3.65;;;;;;;;;;5091262;28;20024;-68
2022/02/01 12:07:53;;;;;;;3.60;2.13;;;;;;;;;;5073409;28;20109;-69
2022/02/01 12:10:19;;;;;;;8.85;2.72;;;;;;;;;;5090770;28;20357;-69
2022/02/01 12:12:44;;;;;;;5.70;2.50;;;;;;;;;;5091289;28;20031;-69
2022/02/01 12:15:10;;;;;;;4.93;3.40;;;;;;;;;;5091791;28;20020;-69
2022/02/01 12:17:37;;;;;;;10.50;3.67;;;;;;;;;;5091025;28;20032;-69
2022/02/01 12:20:04;;;;;;;7.88;2.92;;;;;;;;;;5091885;28;20030;-69
2022/02/01 12:22:32;;;;;;;3.60;2.15;;;;;;;;;;5089844;28;20055;-69
2022/02/01 12:25:01;;;;;;;2.83;1.55;;;;;;;;;;5091805;28;20341;-69
2022/02/01 12:27:36;;;;;;;7.78;2.60;;;;;;;;;;5091267;28;20020;-69
2022/02/01 12:30:03;;;;;;;8.32;1.92;;;;;;;;;;5091852;28;20020;-69
2022/02/01 12:32:28;;;;;;;6.07;2.15;;;;;;;;;;5072639;28;20032;-69
2022/02/01 12:34:53;;;;;;;10.70;4.60;;;;;;;;;;5084335;28;20426;-68
2022/02/01 12:37:22;;;;;;;5.97;3.80;;;;;;;;;;5091171;28;20016;-69
2022/02/01 12:39:58;;;;;;;9.43;3.72;;;;;;;;;;5090637;28;20338;-69
2022/02/01 12:42:36;;;;;;;9.65;3.83;;;;;;;;;;5090558;28;20107;-69
2022/02/01 12:47:45;;;;;;;9.40;3.90;;;;;;;;;;5091497;28;20081;-69
2022/02/01 12:50:12;;;;;;;5.90;4.13;;;;;;;;;;5090443;28;20418;-69
2022/02/01 12:52:38;;;;;;;8.55;4.40;;;;;;;;;;5088765;28;20270;-69
2022/02/01 12:55:11;;;;;;;11.38;5.93;;;;;;;;;;5087150;28;20069;-69
2022/02/01 12:57:37;;;;;;;11.52;5.80;;;;;;;;;;5089354;28;20055;-69
2022/02/01 13:00:10;;;;;;;11.55;5.50;;;;;;;;;;5090452;28;20423;-69
2022/02/01 13:02:35;;;;;;;9.25;3.88;;;;;;;;;;5087220;28;20024;-69
2022/02/01 13:05:03;;;;;;;4.20;2.45;;;;;;;;;;5086171;28;20061;-69
2022/02/01 13:07:43;;;;;;;2.10;1.33;;;;;;;;;;5089424;28;20008;-69
2022/02/01 13:13:00;;;;;;;6.53;4.00;;;;;;;;;;5076305;28;20104;-69
2022/02/01 13:15:36;;;;;;;9.30;1.15;;;;;;;;;;5090145;28;20031;-69
2022/02/01 13:20:59;;;;;;;7.53;4.28;;;;;;;;;;5090400;28;20081;-70
2022/02/01 13:23:34;;;;;;;3.50;2.65;;;;;;;;;;5089953;28;20472;-70
2022/02/01 13:26:00;;;;;;;5.25;3.38;;;;;;;;;;5085605;28;20109;-71
2022/02/01 13:28:26;;;;;;;8.52;4.10;;;;;;;;;;5089090;28;20507;-70
2022/02/01 13:30:52;;;;;;;2.72;1.88;;;;;;;;;;5088671;28;20016;-70
2022/02/01 13:33:17;;;;;;;9.52;3.28;;;;;;;;;;5089927;28;20016;-70
2022/02/01 13:36:01;;;;;;;1.63;0.93;;;;;;;;;;5089780;28;20460;-70
2022/02/01 13:38:27;;;;;;;7.63;4.20;;;;;;;;;;5088961;28;20112;-70
2022/02/01 13:40:54;;;;;;;6.82;4.63;;;;;;;;;;5090144;28;20023;-70
2022/02/01 13:43:23;;;;;;;8.10;5.18;;;;;;;;;;5087158;28;20111;-70
2022/02/01 13:45:49;;;;;;;10.73;3.43;;;;;;;;;;5082878;28;20141;-70
2022/02/01 13:48:18;;;;;;;13.73;3.90;;;;;;;;;;5089370;28;20114;-69
2022/02/01 13:50:47;;;;;;;11.32;4.57;;;;;;;;;;5089819;28;20027;-70
2022/02/01 13:53:12;;;;;;;12.68;5.35;;;;;;;;;;5089356;28;20077;-69
2022/02/01 13:55:40;;;;;;;9.38;4.80;;;;;;;;;;5089678;28;20036;-68
2022/02/01 13:58:09;;;;;;;5.93;3.53;;;;;;;;;;5070969;28;20074;-69
2022/02/01 14:00:42;;;;;;;11.93;6.35;;;;;;;;;;5090045;28;20051;-68
2022/02/01 14:05:44;;;;;;;7.22;4.35;;;;;;;;;;5089281;28;20478;-69
2022/02/01 14:08:27;;;;;;;8.65;3.00;;;;;;;;;;5089261;28;20020;-69
2022/02/01 14:11:25;;;;;;;6.70;3.45;;;;;;;;;;5074460;28;20485;-69
2022/02/01 14:22:31;;;;;;;10.05;4.38;;;;;;;;;;5090167;28;20181;-69
2022/02/01 14:34:53;;;;;;;17.90;5.57;;;;;;;;;;5093218;28;20012;-69
2022/02/01 14:45:13;;;;;;;8.52;4.30;;;;;;;;;;5089197;28;20019;-68
2022/02/01 14:47:38;;;;;;;8.65;4.90;;;;;;;;;;5093406;28;20020;-68
2022/02/01 14:50:05;;;;;;;12.15;5.78;;;;;;;;;;5074614;28;20031;-68
2022/02/01 14:52:30;;;;;;;14.38;6.93;;;;;;;;;;5085540;28;20036;-68
2022/02/01 14:55:01;;;;;;;14.35;7.72;;;;;;;;;;5086637;28;20475;-68
2022/02/01 15:13:32;;;;;;;20.50;11.07;;;;;;;;;;5082921;28;20161;-69
2022/02/01 15:15:57;;;;;;;22.40;11.98;;;;;;;;;;5093152;28;20027;-69
2022/02/01 15:18:23;;;;;;;25.10;12.80;;;;;;;;;;5089755;28;20031;-69
2022/02/01 15:20:48;;;;;;;24.60;11.63;;;;;;;;;;5091336;28;20487;-69
2022/02/01 15:23:13;;;;;;;25.90;13.05;;;;;;;;;;5092556;28;20028;-69
2022/02/01 15:25:38;;;;;;;24.15;13.73;;;;;;;;;;5092843;28;20384;-69
2022/02/01 15:28:04;;;;;;;28.95;14.77;;;;;;;;;;5092451;28;20090;-69
2022/02/01 15:30:31;;;;;;;37.80;16.27;;;;;;;;;;5091804;28;20025;-69
2022/02/01 15:32:57;;;;;;;36.50;21.10;;;;;;;;;;5091762;28;20024;-69
2022/02/01 15:35:22;;;;;;;34.42;15.55;;;;;;;;;;5092416;28;20348;-69
2022/02/01 15:37:51;;;;;;;31.42;16.35;;;;;;;;;;5092249;28;20542;-68
2022/02/01 15:59:01;;;;;;;36.03;17.92;;;;;;;;;;5091765;28;20123;-68
2022/02/01 16:04:04;;;;;;;33.47;14.95;;;;;;;;;;5091762;28;20119;-69
2022/02/01 16:06:32;;;;;;;27.88;14.02;;;;;;;;;;5091184;28;20520;-68
2022/02/01 16:09:07;;;;;;;35.47;15.35;;;;;;;;;;5090782;28;20012;-68
2022/02/01 16:11:32;;;;;;;33.20;16.80;;;;;;;;;;5091888;28;20020;-68
2022/02/01 16:14:00;;;;;;;31.50;15.40;;;;;;;;;;5091060;28;20133;-68
2022/02/01 16:16:26;;;;;;;36.33;17.98;;;;;;;;;;5071974;28;20021;-68
2022/02/01 16:18:52;;;;;;;37.25;15.80;;;;;;;;;;5090833;28;20035;-68
2022/02/01 16:21:18;;;;;;;34.40;16.88;;;;;;;;;;5091142;28;20095;-68
2022/02/01 16:23:43;;;;;;;33.10;16.80;;;;;;;;;;5091524;28;20114;-68
2022/02/01 16:26:08;;;;;;;35.97;18.73;;;;;;;;;;5072629;28;20019;-68
2022/02/01 16:28:33;;;;;;;32.83;16.63;;;;;;;;;;5091301;28;20019;-68
2022/02/01 16:30:58;;;;;;;27.25;14.05;;;;;;;;;;5091160;28;20039;-68
2022/02/01 16:33:24;;;;;;;28.90;14.80;;;;;;;;;;5073153;28;20127;-68
2022/02/01 16:35:49;;;;;;;29.13;13.63;;;;;;;;;;5090957;28;20023;-68
2022/02/01 16:38:14;;;;;;;32.57;13.57;;;;;;;;;;5091514;28;20266;-69
2022/02/01 16:40:41;;;;;;;32.35;15.15;;;;;;;;;;5091196;28;20324;-68
2022/02/01 16:43:13;;;;;;;38.88;16.35;;;;;;;;;;5090607;28;20028;-68
2022/02/01 16:45:39;;;;;;;32.95;13.90;;;;;;;;;;5090995;28;20487;-68
2022/02/01 16:48:07;;;;;;;30.90;14.63;;;;;;;;;;5090855;28;20012;-68
2022/02/01 16:50:32;;;;;;;30.13;15.30;;;;;;;;;;5088544;28;20027;-68
2022/02/01 16:53:02;;;;;;;36.72;13.70;;;;;;;;;;5100598;22;20048;-70
2022/02/01 16:56:02;;;;;;;32.55;14.32;;;;;;;;;;5086983;28;20012;-70
2022/02/01 16:58:25;;;;;;;38.45;14.13;;;;;;;;;;5087606;28;20028;-69
2022/02/01 17:00:51;;;;;;;35.38;12.07;;;;;;;;;;5080129;28;20075;-69
2022/02/01 17:03:18;;;;;;;33.47;12.23;;;;;;;;;;5078947;28;20025;-70
2022/02/01 17:05:44;;;;;;;28.83;13.68;;;;;;;;;;5086090;28;20106;-69
2022/02/01 17:08:11;;;;;;;37.15;16.08;;;;;;;;;;5091414;28;20110;-68
2022/02/01 17:10:36;;;;;;;30.85;15.93;;;;;;;;;;5089091;28;20022;-70
2022/02/01 17:13:12;;;;;;;29.90;12.98;;;;;;;;;;5090226;28;20024;-69
2022/02/01 17:23:22;;;;;;;30.77;11.63;;;;;;;;;;5088303;28;20132;-70
2022/02/01 17:25:47;;;;;;;36.00;12.60;;;;;;;;;;5085539;28;20383;-70
2022/02/01 17:28:12;;;;;;;26.98;12.45;;;;;;;;;;5070316;28;20024;-71
2022/02/01 17:30:37;;;;;;;26.02;12.23;;;;;;;;;;5090353;28;20168;-69
2022/02/01 17:33:02;;;;;;;41.33;14.05;;;;;;;;;;5090008;28;20020;-71
2022/02/01 17:35:27;;;;;;;29.05;13.07;;;;;;;;;;5090973;28;20404;-70
2022/02/01 17:37:53;;;;;;;36.97;12.73;;;;;;;;;;5090066;28;20482;-71